Aviation Digital Data Service (ADDS)

Output produced by METARs form (0848 UTC 24 March 2019)
found at http://www.aviationweather.gov/metar/data/
 
METAR text: YSCB 240830Z AUTO 33013KT 9999 // NCD 22/14 Q1012 RF00.0/000.0
Conditions at: YSCB (CANBERRA (CIV/MI, AU) observed 0830 UTC 24 March 2019
Temperature: 22.0°C (72°F)
Dewpoint: 14.0°C (57°F) [RH = 60%]
Pressure (altimeter): 29.88 inches Hg (1012.0 mb)
Winds: from the NNW (330 degrees) at 15 MPH (13 knots; 6.7 m/s)
Visibility: 6 or more miles (10+ km)
Ceiling: at least 12,000 feet AGL
Clouds: sky clear below 12,000 feet AGL
Weather: no significant weather observed at this time

METAR text: YSCB 240800Z AUTO 32015KT 9999 // NCD 22/13 Q1011 RF00.0/000.0
Conditions at: YSCB (CANBERRA (CIV/MI, AU) observed 0800 UTC 24 March 2019
Temperature: 22.0°C (72°F)
Dewpoint: 13.0°C (55°F) [RH = 57%]
Pressure (altimeter): 29.85 inches Hg (1011.0 mb)
Winds: from the NW (320 degrees) at 17 MPH (15 knots; 7.7 m/s)
Visibility: 6 or more miles (10+ km)
Ceiling: at least 12,000 feet AGL
Clouds: sky clear below 12,000 feet AGL
Weather: no significant weather observed at this time

METAR text: YSCB 240730Z AUTO 33014KT 9999 // SCT100 23/13 Q1012 RF00.0/000.0
Conditions at: YSCB (CANBERRA (CIV/MI, AU) observed 0730 UTC 24 March 2019
Temperature: 23.0°C (73°F)
Dewpoint: 13.0°C (55°F) [RH = 53%]
Pressure (altimeter): 29.88 inches Hg (1012.0 mb)
Winds: from the NNW (330 degrees) at 16 MPH (14 knots; 7.2 m/s)
Visibility: 6 or more miles (10+ km)
Ceiling: at least 12,000 feet AGL
Clouds: scattered clouds at 10000 feet AGL
Weather: no significant weather observed at this time

METAR text: YSCB 240700Z AUTO 32013KT 9999 // SCT100 24/13 Q1012
Conditions at: YSCB (CANBERRA (CIV/MI, AU) observed 0700 UTC 24 March 2019
Temperature: 24.0°C (75°F)
Dewpoint: 13.0°C (55°F) [RH = 50%]
Pressure (altimeter): 29.88 inches Hg (1012.0 mb)
Winds: from the NW (320 degrees) at 15 MPH (13 knots; 6.7 m/s)
Visibility: 6 or more miles (10+ km)
Ceiling: at least 12,000 feet AGL
Clouds: scattered clouds at 10000 feet AGL
Weather: no significant weather observed at this time

METAR text: YSCB 240630Z AUTO 31014KT 9999 // SCT100 24/13 Q1012 RF00.0/000.0 USE TAF FOR ARRIVALS.
Conditions at: YSCB (CANBERRA (CIV/MI, AU) observed 0630 UTC 24 March 2019
Temperature: 24.0°C (75°F)
Dewpoint: 13.0°C (55°F) [RH = 50%]
Pressure (altimeter): 29.88 inches Hg (1012.0 mb)
Winds: from the NW (310 degrees) at 16 MPH (14 knots; 7.2 m/s)
Visibility: 6 or more miles (10+ km)
Ceiling: at least 12,000 feet AGL
Clouds: scattered clouds at 10000 feet AGL
Weather: VA  (volcanic ash)

METAR text: YSCB 240600Z AUTO 31015KT 9999 // SCT068 BKN084 25/13 Q1012 FM0600 MOD TURB BLW 5000FT
Conditions at: YSCB (CANBERRA (CIV/MI, AU) observed 0600 UTC 24 March 2019
Temperature: 25.0°C (77°F)
Dewpoint: 13.0°C (55°F) [RH = 47%]
Pressure (altimeter): 29.88 inches Hg (1012.0 mb)
Winds: from the NW (310 degrees) at 17 MPH (15 knots; 7.7 m/s)
Visibility: 6 or more miles (10+ km)
Ceiling: 8400 feet AGL
Clouds: scattered clouds at 6800 feet AGL
broken clouds at 8400 feet AGL
Weather: no significant weather observed at this time

METAR text: YSCB 240530Z AUTO 33015KT 9999 // BKN070 OVC095 25/13 Q1012 RMK RF00.0/000.0 RMK USE TAF FOR ARRIVALS AFTER 0630Z FM0530 MOD TURB BLW 5000FT
Conditions at: YSCB (CANBERRA (CIV/MI, AU) observed 0530 UTC 24 March 2019
Temperature: 25.0°C (77°F)
Dewpoint: 13.0°C (55°F) [RH = 47%]
Pressure (altimeter): 29.88 inches Hg (1012.0 mb)
Winds: from the NNW (330 degrees) at 17 MPH (15 knots; 7.7 m/s)
Visibility: 6 or more miles (10+ km)
Ceiling: 7000 feet AGL
Clouds: broken clouds at 7000 feet AGL
overcast cloud deck at 9500 feet AGL
Weather: no significant weather observed at this time

METAR text: YSCB 240500Z AUTO 31014KT 9999 // OVC072 25/12 Q1012 FM0500 MOD TURB BLW 5000FT
Conditions at: YSCB (CANBERRA (CIV/MI, AU) observed 0500 UTC 24 March 2019
Temperature: 25.0°C (77°F)
Dewpoint: 12.0°C (54°F) [RH = 44%]
Pressure (altimeter): 29.88 inches Hg (1012.0 mb)
Winds: from the NW (310 degrees) at 16 MPH (14 knots; 7.2 m/s)
Visibility: 6 or more miles (10+ km)
Ceiling: 7200 feet AGL
Clouds: overcast cloud deck at 7200 feet AGL
Weather: no significant weather observed at this time

METAR text: YSCB 240430Z AUTO 33015KT 9999 // BKN068 BKN081 25/12 Q1012 RMK RF00.0/000.0 RMK USE TAF FOR ARRIVALS AFTER 0630Z FM0430 MOD TURB BLW 5000FT
Conditions at: YSCB (CANBERRA (CIV/MI, AU) observed 0430 UTC 24 March 2019
Temperature: 25.0°C (77°F)
Dewpoint: 12.0°C (54°F) [RH = 44%]
Pressure (altimeter): 29.88 inches Hg (1012.0 mb)
Winds: from the NNW (330 degrees) at 17 MPH (15 knots; 7.7 m/s)
Visibility: 6 or more miles (10+ km)
Ceiling: 6800 feet AGL
Clouds: broken clouds at 6800 feet AGL
broken clouds at 8100 feet AGL
Weather: no significant weather observed at this time

METAR text: YSCB 240400Z AUTO 31011KT 9999 // SCT072 BKN083 OVC100 25/13 Q1012 RMK RF00.0/000.0 FM0400 MOD TURB BLW 5000FT
Conditions at: YSCB (CANBERRA (CIV/MI, AU) observed 0400 UTC 24 March 2019
Temperature: 25.0°C (77°F)
Dewpoint: 13.0°C (55°F) [RH = 47%]
Pressure (altimeter): 29.88 inches Hg (1012.0 mb)
Winds: from the NW (310 degrees) at 13 MPH (11 knots; 5.7 m/s)
Visibility: 6 or more miles (10+ km)
Ceiling: 8300 feet AGL
Clouds: scattered clouds at 7200 feet AGL
broken clouds at 8300 feet AGL
overcast cloud deck at 10000 feet AGL
Weather: no significant weather observed at this time

METAR text: YSCB 240330Z AUTO 31014KT 9999 // BKN085 BKN100 25/12 Q1012 RMK RF00.0/000.0 FM0330 MOD TURB BLW 5000FT
Conditions at: YSCB (CANBERRA (CIV/MI, AU) observed 0330 UTC 24 March 2019
Temperature: 25.0°C (77°F)
Dewpoint: 12.0°C (54°F) [RH = 44%]
Pressure (altimeter): 29.88 inches Hg (1012.0 mb)
Winds: from the NW (310 degrees) at 16 MPH (14 knots; 7.2 m/s)
Visibility: 6 or more miles (10+ km)
Ceiling: 8500 feet AGL
Clouds: broken clouds at 8500 feet AGL
broken clouds at 10000 feet AGL
Weather: no significant weather observed at this time

METAR text: YSCB 240300Z AUTO 32019KT 9999 // SCT099 27/12 Q1013 RMK RF00.0/000.0 FM0300 MOD TURB BLW 5000FT
Conditions at: YSCB (CANBERRA (CIV/MI, AU) observed 0300 UTC 24 March 2019
Temperature: 27.0°C (81°F)
Dewpoint: 12.0°C (54°F) [RH = 39%]
Pressure (altimeter): 29.91 inches Hg (1013.0 mb)
Winds: from the NW (320 degrees) at 22 MPH (19 knots; 9.8 m/s)
Visibility: 6 or more miles (10+ km)
Ceiling: at least 12,000 feet AGL
Clouds: scattered clouds at 9900 feet AGL
Weather: no significant weather observed at this time

METAR text: YSCB 240230Z AUTO 32018KT 9999 // OVC092 25/13 Q1013 RMK RF00.0/000.0 FM0230 MOD TURB BLW 5000FT
Conditions at: YSCB (CANBERRA (CIV/MI, AU) observed 0230 UTC 24 March 2019
Temperature: 25.0°C (77°F)
Dewpoint: 13.0°C (55°F) [RH = 47%]
Pressure (altimeter): 29.91 inches Hg (1013.0 mb)
Winds: from the NW (320 degrees) at 21 MPH (18 knots; 9.3 m/s)
Visibility: 6 or more miles (10+ km)
Ceiling: 9200 feet AGL
Clouds: overcast cloud deck at 9200 feet AGL
Weather: no significant weather observed at this time

METAR text: YSCB 240200Z AUTO 32018KT 9999 // SCT096 26/14 Q1014 RMK RF00.0/000.0 FM0230 30014KT 9999 -RA BKN090 FM0200 MOD TURB BLW 5000FT
Conditions at: YSCB (CANBERRA (CIV/MI, AU) observed 0200 UTC 24 March 2019
Temperature: 26.0°C (79°F)
Dewpoint: 14.0°C (57°F) [RH = 48%]
Pressure (altimeter): 29.94 inches Hg (1014.0 mb)
Winds: from the NW (320 degrees) at 21 MPH (18 knots; 9.3 m/s)
Visibility: 6 or more miles (10+ km)
Ceiling: at least 12,000 feet AGL
Clouds: scattered clouds at 9600 feet AGL
Weather: no significant weather observed at this time

METAR text: YSCB 240143Z AUTO 32016G26KT 9999 // NCD 26/13 Q1014 RF00/0/000/0 FM0230 30014KT 9999 -RA BKN090 FM0143 MOD TURB BLW 5000FT
Conditions at: YSCB (CANBERRA (CIV/MI, AU) observed 0143 UTC 24 March 2019
Temperature: 26.0°C (79°F)
Dewpoint: 13.0°C (55°F) [RH = 45%]
Pressure (altimeter): 29.94 inches Hg (1014.0 mb)
Winds: from the NW (320 degrees) at 18 MPH (16 knots; 8.2 m/s)
gusting to 30 MPH (26 knots; 13.4 m/s)
Visibility: 6 or more miles (10+ km)
Ceiling: at least 12,000 feet AGL
Clouds: sky clear below 12,000 feet AGL
Weather: no significant weather observed at this time

METAR text: YSCB 240130Z AUTO 31013KT 9999 // SCT110 26/14 Q1014 RMK RF00.0/000.0 FM0130 MOD TURB BLW 5000FT
Conditions at: YSCB (CANBERRA (CIV/MI, AU) observed 0130 UTC 24 March 2019
Temperature: 26.0°C (79°F)
Dewpoint: 14.0°C (57°F) [RH = 48%]
Pressure (altimeter): 29.94 inches Hg (1014.0 mb)
Winds: from the NW (310 degrees) at 15 MPH (13 knots; 6.7 m/s)
Visibility: 6 or more miles (10+ km)
Ceiling: at least 12,000 feet AGL
Clouds: scattered clouds at 11000 feet AGL
Weather: no significant weather observed at this time

METAR text: YSCB 240100Z AUTO 32010KT 9999 // OVC100 24/14 Q1015 NOSIG FM0100 MOD TURB BLW 5000FT
Conditions at: YSCB (CANBERRA (CIV/MI, AU) observed 0100 UTC 24 March 2019
Temperature: 24.0°C (75°F)
Dewpoint: 14.0°C (57°F) [RH = 54%]
Pressure (altimeter): 29.97 inches Hg (1015.0 mb)
Winds: from the NW (320 degrees) at 12 MPH (10 knots; 5.1 m/s)
Visibility: 6 or more miles (10+ km)
Ceiling: 10000 feet AGL
Clouds: overcast cloud deck at 10000 feet AGL
Weather: no significant weather observed at this time

METAR text: YSCB 240030Z AUTO 33007KT 9999 // SCT074 OVC099 22/15 Q1015 RMK RF00.0/000.0 FM0100 30014KT 9999 -RA BKN090 FM0030 MOD TURB BLW 5000FT
Conditions at: YSCB (CANBERRA (CIV/MI, AU) observed 0030 UTC 24 March 2019
Temperature: 22.0°C (72°F)
Dewpoint: 15.0°C (59°F) [RH = 65%]
Pressure (altimeter): 29.97 inches Hg (1015.0 mb)
Winds: from the NNW (330 degrees) at 8 MPH (7 knots; 3.6 m/s)
Visibility: 6 or more miles (10+ km)
Ceiling: 9900 feet AGL
Clouds: scattered clouds at 7400 feet AGL
overcast cloud deck at 9900 feet AGL
Weather: no significant weather observed at this time

METAR text: YSCB 240000Z AUTO 28012KT 9999 // SCT053 SCT073 BKN083 20/14 Q1016 RMK RF00.0/000.0 FM0100 30014KT 9999 -RA BKN090 FM0000 MOD TURB BLW 5000FT
Conditions at: YSCB (CANBERRA (CIV/MI, AU) observed 0000 UTC 24 March 2019
Temperature: 20.0°C (68°F)
Dewpoint: 14.0°C (57°F) [RH = 68%]
Pressure (altimeter): 30.00 inches Hg (1016.0 mb)
Winds: from the W (280 degrees) at 14 MPH (12 knots; 6.2 m/s)
Visibility: 6 or more miles (10+ km)
Ceiling: 8300 feet AGL
Clouds: scattered clouds at 5300 feet AGL
scattered clouds at 7300 feet AGL
broken clouds at 8300 feet AGL
Weather: no significant weather observed at this time

METAR text: YSCB 232330Z AUTO 31005KT 9999 // OVC086 19/15 Q1016 RMK RF00.0/000.0 FM0100 30014KT 9999 -SHRA BKN090 FM2330 MOD TURB BLW 5000FT
Conditions at: YSCB (CANBERRA (CIV/MI, AU) observed 2330 UTC 23 March 2019
Temperature: 19.0°C (66°F)
Dewpoint: 15.0°C (59°F) [RH = 78%]
Pressure (altimeter): 30.00 inches Hg (1016.0 mb)
Winds: from the NW (310 degrees) at 6 MPH (5 knots; 2.6 m/s)
Visibility: 6 or more miles (10+ km)
Ceiling: 8600 feet AGL
Clouds: overcast cloud deck at 8600 feet AGL
Weather: no significant weather observed at this time

METAR text: YSCB 232300Z AUTO 20005KT 9999 -SHRA SCT013 SCT068 OVC085 18/16 Q1016 FM0100 30014KT 9999 -SHRA BKN090 FM2300 MOD TURB BLW 5000FT
Conditions at: YSCB (CANBERRA (CIV/MI, AU) observed 2300 UTC 23 March 2019
Temperature: 18.0°C (64°F)
Dewpoint: 16.0°C (61°F) [RH = 88%]
Pressure (altimeter): 30.00 inches Hg (1016.0 mb)
Winds: from the SSW (200 degrees) at 6 MPH (5 knots; 2.6 m/s)
Visibility: 6 or more miles (10+ km)
Ceiling: 8500 feet AGL
Clouds: scattered clouds at 1300 feet AGL
scattered clouds at 6800 feet AGL
overcast cloud deck at 8500 feet AGL
Weather: -SHRA  (light rain showers)

METAR text: YSCB 232230Z AUTO 05004KT 9999 -SHRA OVC083 18/16 Q1016 RF00.0/000.0
Conditions at: YSCB (CANBERRA (CIV/MI, AU) observed 2230 UTC 23 March 2019
Temperature: 18.0°C (64°F)
Dewpoint: 16.0°C (61°F) [RH = 88%]
Pressure (altimeter): 30.00 inches Hg (1016.0 mb)
Winds: from the NE (50 degrees) at 5 MPH (4 knots; 2.1 m/s)
Visibility: 6 or more miles (10+ km)
Ceiling: 8300 feet AGL
Clouds: overcast cloud deck at 8300 feet AGL
Weather: -SHRA  (light rain showers)

METAR text: YSCB 232200Z AUTO 01006KT 350V050 9999 -RA SCT009 SCT065 OVC079 17/15 Q1016
Conditions at: YSCB (CANBERRA (CIV/MI, AU) observed 2200 UTC 23 March 2019
Temperature: 17.0°C (63°F)
Dewpoint: 15.0°C (59°F) [RH = 88%]
Pressure (altimeter): 30.00 inches Hg (1016.0 mb)
Winds: from the N (10 degrees) at 7 MPH (6 knots; 3.1 m/s)
Visibility: 6 or more miles (10+ km)
Ceiling: 7900 feet AGL
Clouds: scattered clouds at 900 feet AGL
scattered clouds at 6500 feet AGL
overcast cloud deck at 7900 feet AGL
Weather: -RA  (light rain)

METAR text: YSCB 232130Z AUTO 03002KT 9999 // OVC079 OVC086 16/15 Q1015
Conditions at: YSCB (CANBERRA (CIV/MI, AU) observed 2130 UTC 23 March 2019
Temperature: 16.0°C (61°F)
Dewpoint: 15.0°C (59°F) [RH = 94%]
Pressure (altimeter): 29.97 inches Hg (1015.0 mb)
Winds: from the NNE (30 degrees) at 2 MPH (2 knots; 1.0 m/s)
Visibility: 6 or more miles (10+ km)
Ceiling: 7900 feet AGL
Clouds: overcast cloud deck at 7900 feet AGL
overcast cloud deck at 8600 feet AGL
Weather: no significant weather observed at this time

METAR text: YSCB 232100Z AUTO 01004KT 9999 // BKN091 16/15 Q1015 RF00.0/000.0
Conditions at: YSCB (CANBERRA (CIV/MI, AU) observed 2100 UTC 23 March 2019
Temperature: 16.0°C (61°F)
Dewpoint: 15.0°C (59°F) [RH = 94%]
Pressure (altimeter): 29.97 inches Hg (1015.0 mb)
Winds: from the N (10 degrees) at 5 MPH (4 knots; 2.1 m/s)
Visibility: 6 or more miles (10+ km)
Ceiling: 9100 feet AGL
Clouds: broken clouds at 9100 feet AGL
Weather: no significant weather observed at this time

METAR text: YSCB 232030Z AUTO 09004KT 9999 // NCD 16/14 Q1014 RF00.0/000.0
Conditions at: YSCB (CANBERRA (CIV/MI, AU) observed 2030 UTC 23 March 2019
Temperature: 16.0°C (61°F)
Dewpoint: 14.0°C (57°F) [RH = 88%]
Pressure (altimeter): 29.94 inches Hg (1014.0 mb)
Winds: from the E (90 degrees) at 5 MPH (4 knots; 2.1 m/s)
Visibility: 6 or more miles (10+ km)
Ceiling: at least 12,000 feet AGL
Clouds: sky clear below 12,000 feet AGL
Weather: no significant weather observed at this time

METAR text: YSCB 232000Z AUTO 26001KT 9999 // NCD 15/14 Q1013 RF00.0/000.0
Conditions at: YSCB (CANBERRA (CIV/MI, AU) observed 2000 UTC 23 March 2019
Temperature: 15.0°C (59°F)
Dewpoint: 14.0°C (57°F) [RH = 94%]
Pressure (altimeter): 29.91 inches Hg (1013.0 mb)
Winds: from the W (260 degrees) at 1 MPH (1 knots; 0.5 m/s)
Visibility: 6 or more miles (10+ km)
Ceiling: at least 12,000 feet AGL
Clouds: sky clear below 12,000 feet AGL
Weather: no significant weather observed at this time

METAR text: YSCB 231930Z AUTO 24004KT 140V280 9999 // NCD 15/14 Q1013 RF00.0/000.0
Conditions at: YSCB (CANBERRA (CIV/MI, AU) observed 1930 UTC 23 March 2019
Temperature: 15.0°C (59°F)
Dewpoint: 14.0°C (57°F) [RH = 94%]
Pressure (altimeter): 29.91 inches Hg (1013.0 mb)
Winds: from the WSW (240 degrees) at 5 MPH (4 knots; 2.1 m/s)
Visibility: 6 or more miles (10+ km)
Ceiling: at least 12,000 feet AGL
Clouds: sky clear below 12,000 feet AGL
Weather: no significant weather observed at this time

METAR text: YSCB 231900Z AUTO 34004KT 9999 // SCT120 15/14 Q1013 RF00.0/000.0
Conditions at: YSCB (CANBERRA (CIV/MI, AU) observed 1900 UTC 23 March 2019
Temperature: 15.0°C (59°F)
Dewpoint: 14.0°C (57°F) [RH = 94%]
Pressure (altimeter): 29.91 inches Hg (1013.0 mb)
Winds: from the NNW (340 degrees) at 5 MPH (4 knots; 2.1 m/s)
Visibility: 6 or more miles (10+ km)
Ceiling: at least 12,000 feet AGL
Clouds: scattered clouds at 12000 feet AGL
Weather: no significant weather observed at this time

METAR text: YSCB 231830Z AUTO 00000KT 9999 // BKN120 16/14 Q1012 RF00.0/000.0
Conditions at: YSCB (CANBERRA (CIV/MI, AU) observed 1830 UTC 23 March 2019
Temperature: 16.0°C (61°F)
Dewpoint: 14.0°C (57°F) [RH = 88%]
Pressure (altimeter): 29.88 inches Hg (1012.0 mb)
Winds: calm
Visibility: 6 or more miles (10+ km)
Ceiling: 12000 feet AGL
Clouds: broken clouds at 12000 feet AGL
Weather: no significant weather observed at this time

METAR text: YSCB 231800Z AUTO 00000KT 9999 // OVC120 16/14 Q1013
Conditions at: YSCB (CANBERRA (CIV/MI, AU) observed 1800 UTC 23 March 2019
Temperature: 16.0°C (61°F)
Dewpoint: 14.0°C (57°F) [RH = 88%]
Pressure (altimeter): 29.91 inches Hg (1013.0 mb)
Winds: calm
Visibility: 6 or more miles (10+ km)
Ceiling: 12000 feet AGL
Clouds: overcast cloud deck at 12000 feet AGL
Weather: no significant weather observed at this time

METAR text: YSCB 231730Z AUTO 00000KT 9999 // SCT120 16/14 Q1012 RF00.0/000.0
Conditions at: YSCB (CANBERRA (CIV/MI, AU) observed 1730 UTC 23 March 2019
Temperature: 16.0°C (61°F)
Dewpoint: 14.0°C (57°F) [RH = 88%]
Pressure (altimeter): 29.88 inches Hg (1012.0 mb)
Winds: calm
Visibility: 6 or more miles (10+ km)
Ceiling: at least 12,000 feet AGL
Clouds: scattered clouds at 12000 feet AGL
Weather: no significant weather observed at this time

METAR text: YSCB 231700Z AUTO 15001KT 9999 // NCD 15/14 Q1012 RF00.0/000.0
Conditions at: YSCB (CANBERRA (CIV/MI, AU) observed 1700 UTC 23 March 2019
Temperature: 15.0°C (59°F)
Dewpoint: 14.0°C (57°F) [RH = 94%]
Pressure (altimeter): 29.88 inches Hg (1012.0 mb)
Winds: from the SSE (150 degrees) at 1 MPH (1 knots; 0.5 m/s)
Visibility: 6 or more miles (10+ km)
Ceiling: at least 12,000 feet AGL
Clouds: sky clear below 12,000 feet AGL
Weather: no significant weather observed at this time

METAR text: YSCB 231630Z AUTO 15001KT 9999 // NCD 16/14 Q1012 RF00.0/000.0
Conditions at: YSCB (CANBERRA (CIV/MI, AU) observed 1630 UTC 23 March 2019
Temperature: 16.0°C (61°F)
Dewpoint: 14.0°C (57°F) [RH = 88%]
Pressure (altimeter): 29.88 inches Hg (1012.0 mb)
Winds: from the SSE (150 degrees) at 1 MPH (1 knots; 0.5 m/s)
Visibility: 6 or more miles (10+ km)
Ceiling: at least 12,000 feet AGL
Clouds: sky clear below 12,000 feet AGL
Weather: no significant weather observed at this time

METAR text: YSCB 231600Z AUTO 15004KT 9999 // NCD 17/14 Q1013
Conditions at: YSCB (CANBERRA (CIV/MI, AU) observed 1600 UTC 23 March 2019
Temperature: 17.0°C (63°F)
Dewpoint: 14.0°C (57°F) [RH = 82%]
Pressure (altimeter): 29.91 inches Hg (1013.0 mb)
Winds: from the SSE (150 degrees) at 5 MPH (4 knots; 2.1 m/s)
Visibility: 6 or more miles (10+ km)
Ceiling: at least 12,000 feet AGL
Clouds: sky clear below 12,000 feet AGL
Weather: no significant weather observed at this time

METAR text: YSCB 231530Z AUTO 21004KT 110V250 9999 // NCD 15/14 Q1013 RF00.0/000.0
Conditions at: YSCB (CANBERRA (CIV/MI, AU) observed 1530 UTC 23 March 2019
Temperature: 15.0°C (59°F)
Dewpoint: 14.0°C (57°F) [RH = 94%]
Pressure (altimeter): 29.91 inches Hg (1013.0 mb)
Winds: from the SSW (210 degrees) at 5 MPH (4 knots; 2.1 m/s)
Visibility: 6 or more miles (10+ km)
Ceiling: at least 12,000 feet AGL
Clouds: sky clear below 12,000 feet AGL
Weather: no significant weather observed at this time

METAR text: YSCB 231500Z AUTO 25001KT 9999 // NCD 16/14 Q1013 RF00.0/000.0
Conditions at: YSCB (CANBERRA (CIV/MI, AU) observed 1500 UTC 23 March 2019
Temperature: 16.0°C (61°F)
Dewpoint: 14.0°C (57°F) [RH = 88%]
Pressure (altimeter): 29.91 inches Hg (1013.0 mb)
Winds: from the WSW (250 degrees) at 1 MPH (1 knots; 0.5 m/s)
Visibility: 6 or more miles (10+ km)
Ceiling: at least 12,000 feet AGL
Clouds: sky clear below 12,000 feet AGL
Weather: no significant weather observed at this time

METAR text: YSCB 231430Z AUTO 12002KT 9999 // NCD 16/14 Q1013 RF00.0/000.0
Conditions at: YSCB (CANBERRA (CIV/MI, AU) observed 1430 UTC 23 March 2019
Temperature: 16.0°C (61°F)
Dewpoint: 14.0°C (57°F) [RH = 88%]
Pressure (altimeter): 29.91 inches Hg (1013.0 mb)
Winds: from the ESE (120 degrees) at 2 MPH (2 knots; 1.0 m/s)
Visibility: 6 or more miles (10+ km)
Ceiling: at least 12,000 feet AGL
Clouds: sky clear below 12,000 feet AGL
Weather: no significant weather observed at this time

METAR text: YSCB 231400Z AUTO 00000KT 9999 // NCD 16/14 Q1013 RF00.0/000.0
Conditions at: YSCB (CANBERRA (CIV/MI, AU) observed 1400 UTC 23 March 2019
Temperature: 16.0°C (61°F)
Dewpoint: 14.0°C (57°F) [RH = 88%]
Pressure (altimeter): 29.91 inches Hg (1013.0 mb)
Winds: calm
Visibility: 6 or more miles (10+ km)
Ceiling: at least 12,000 feet AGL
Clouds: sky clear below 12,000 feet AGL
Weather: no significant weather observed at this time

METAR text: YSCB 231330Z AUTO 06001KT 9999 // NCD 15/13 Q1013 RF00.0/000.0
Conditions at: YSCB (CANBERRA (CIV/MI, AU) observed 1330 UTC 23 March 2019
Temperature: 15.0°C (59°F)
Dewpoint: 13.0°C (55°F) [RH = 88%]
Pressure (altimeter): 29.91 inches Hg (1013.0 mb)
Winds: from the ENE (60 degrees) at 1 MPH (1 knots; 0.5 m/s)
Visibility: 6 or more miles (10+ km)
Ceiling: at least 12,000 feet AGL
Clouds: sky clear below 12,000 feet AGL
Weather: no significant weather observed at this time

METAR text: YSCB 231300Z AUTO 12003KT 9999 // NCD 16/13 Q1013 RF00.0/000.0
Conditions at: YSCB (CANBERRA (CIV/MI, AU) observed 1300 UTC 23 March 2019
Temperature: 16.0°C (61°F)
Dewpoint: 13.0°C (55°F) [RH = 82%]
Pressure (altimeter): 29.91 inches Hg (1013.0 mb)
Winds: from the ESE (120 degrees) at 3 MPH (3 knots; 1.5 m/s)
Visibility: 6 or more miles (10+ km)
Ceiling: at least 12,000 feet AGL
Clouds: sky clear below 12,000 feet AGL
Weather: no significant weather observed at this time

METAR text: YSCB 231230Z AUTO 13006KT 9999 // NCD 16/13 Q1014 RF00.0/000.0
Conditions at: YSCB (CANBERRA (CIV/MI, AU) observed 1230 UTC 23 March 2019
Temperature: 16.0°C (61°F)
Dewpoint: 13.0°C (55°F) [RH = 82%]
Pressure (altimeter): 29.94 inches Hg (1014.0 mb)
Winds: from the SE (130 degrees) at 7 MPH (6 knots; 3.1 m/s)
Visibility: 6 or more miles (10+ km)
Ceiling: at least 12,000 feet AGL
Clouds: sky clear below 12,000 feet AGL
Weather: no significant weather observed at this time

METAR text: YSCB 231200Z AUTO 34002KT 9999 // NCD 15/12 Q1013
Conditions at: YSCB (CANBERRA (CIV/MI, AU) observed 1200 UTC 23 March 2019
Temperature: 15.0°C (59°F)
Dewpoint: 12.0°C (54°F) [RH = 82%]
Pressure (altimeter): 29.91 inches Hg (1013.0 mb)
Winds: from the NNW (340 degrees) at 2 MPH (2 knots; 1.0 m/s)
Visibility: 6 or more miles (10+ km)
Ceiling: at least 12,000 feet AGL
Clouds: sky clear below 12,000 feet AGL
Weather: no significant weather observed at this time

METAR text: YSCB 231130Z AUTO 11002KT 9999 // NCD 17/14 Q1013 RF00.0/000.0
Conditions at: YSCB (CANBERRA (CIV/MI, AU) observed 1130 UTC 23 March 2019
Temperature: 17.0°C (63°F)
Dewpoint: 14.0°C (57°F) [RH = 82%]
Pressure (altimeter): 29.91 inches Hg (1013.0 mb)
Winds: from the ESE (110 degrees) at 2 MPH (2 knots; 1.0 m/s)
Visibility: 6 or more miles (10+ km)
Ceiling: at least 12,000 feet AGL
Clouds: sky clear below 12,000 feet AGL
Weather: no significant weather observed at this time

METAR text: YSCB 231100Z AUTO 35004KT 9999 // NCD 17/13 Q1013
Conditions at: YSCB (CANBERRA (CIV/MI, AU) observed 1100 UTC 23 March 2019
Temperature: 17.0°C (63°F)
Dewpoint: 13.0°C (55°F) [RH = 77%]
Pressure (altimeter): 29.91 inches Hg (1013.0 mb)
Winds: from the N (350 degrees) at 5 MPH (4 knots; 2.1 m/s)
Visibility: 6 or more miles (10+ km)
Ceiling: at least 12,000 feet AGL
Clouds: sky clear below 12,000 feet AGL
Weather: no significant weather observed at this time

METAR text: YSCB 231030Z AUTO 02003KT 9999 // SCT087 18/13 Q1013 RF00.0/000.0
Conditions at: YSCB (CANBERRA (CIV/MI, AU) observed 1030 UTC 23 March 2019
Temperature: 18.0°C (64°F)
Dewpoint: 13.0°C (55°F) [RH = 73%]
Pressure (altimeter): 29.91 inches Hg (1013.0 mb)
Winds: from the NNE (20 degrees) at 3 MPH (3 knots; 1.5 m/s)
Visibility: 6 or more miles (10+ km)
Ceiling: at least 12,000 feet AGL
Clouds: scattered clouds at 8700 feet AGL
Weather: no significant weather observed at this time

METAR text: YSCB 231000Z AUTO 36007KT 9999 // SCT093 SCT125 18/14 Q1013
Conditions at: YSCB (CANBERRA (CIV/MI, AU) observed 1000 UTC 23 March 2019
Temperature: 18.0°C (64°F)
Dewpoint: 14.0°C (57°F) [RH = 77%]
Pressure (altimeter): 29.91 inches Hg (1013.0 mb)
Winds: from the N (360 degrees) at 8 MPH (7 knots; 3.6 m/s)
Visibility: 6 or more miles (10+ km)
Ceiling: at least 12,000 feet AGL
Clouds: scattered clouds at 9300 feet AGL
scattered clouds at 12500 feet AGL
Weather: no significant weather observed at this time

METAR text: YSCB 230930Z AUTO 19004KT 9999 // SCT125 18/13 Q1013 RF00.0/000.0
Conditions at: YSCB (CANBERRA (CIV/MI, AU) observed 0930 UTC 23 March 2019
Temperature: 18.0°C (64°F)
Dewpoint: 13.0°C (55°F) [RH = 73%]
Pressure (altimeter): 29.91 inches Hg (1013.0 mb)
Winds: from the S (190 degrees) at 5 MPH (4 knots; 2.1 m/s)
Visibility: 6 or more miles (10+ km)
Ceiling: at least 12,000 feet AGL
Clouds: scattered clouds at 12500 feet AGL
Weather: no significant weather observed at this time

METAR text: YSCB 230900Z AUTO 10006KT 9999 // SCT100 19/13 Q1012 RF00.0/000.0
Conditions at: YSCB (CANBERRA (CIV/MI, AU) observed 0900 UTC 23 March 2019
Temperature: 19.0°C (66°F)
Dewpoint: 13.0°C (55°F) [RH = 68%]
Pressure (altimeter): 29.88 inches Hg (1012.0 mb)
Winds: from the E (100 degrees) at 7 MPH (6 knots; 3.1 m/s)
Visibility: 6 or more miles (10+ km)
Ceiling: at least 12,000 feet AGL
Clouds: scattered clouds at 10000 feet AGL
Weather: no significant weather observed at this time

METAR text: YSCB 230830Z AUTO 07005KT 9999 // SCT096 20/13 Q1013 RF00.0/000.0
Conditions at: YSCB (CANBERRA (CIV/MI, AU) observed 0830 UTC 23 March 2019
Temperature: 20.0°C (68°F)
Dewpoint: 13.0°C (55°F) [RH = 64%]
Pressure (altimeter): 29.91 inches Hg (1013.0 mb)
Winds: from the ENE (70 degrees) at 6 MPH (5 knots; 2.6 m/s)
Visibility: 6 or more miles (10+ km)
Ceiling: at least 12,000 feet AGL
Clouds: scattered clouds at 9600 feet AGL
Weather: no significant weather observed at this time

METAR text: YSCB 230800Z AUTO 32005KT 9999 // NCD 22/13 Q1012
Conditions at: YSCB (CANBERRA (CIV/MI, AU) observed 0800 UTC 23 March 2019
Temperature: 22.0°C (72°F)
Dewpoint: 13.0°C (55°F) [RH = 57%]
Pressure (altimeter): 29.88 inches Hg (1012.0 mb)
Winds: from the NW (320 degrees) at 6 MPH (5 knots; 2.6 m/s)
Visibility: 6 or more miles (10+ km)
Ceiling: at least 12,000 feet AGL
Clouds: sky clear below 12,000 feet AGL
Weather: no significant weather observed at this time

METAR text: YSCB 230730Z AUTO 32006KT 9999 // SCT100 23/14 Q1012 RF00.0/000.0
Conditions at: YSCB (CANBERRA (CIV/MI, AU) observed 0730 UTC 23 March 2019
Temperature: 23.0°C (73°F)
Dewpoint: 14.0°C (57°F) [RH = 57%]
Pressure (altimeter): 29.88 inches Hg (1012.0 mb)
Winds: from the NW (320 degrees) at 7 MPH (6 knots; 3.1 m/s)
Visibility: 6 or more miles (10+ km)
Ceiling: at least 12,000 feet AGL
Clouds: scattered clouds at 10000 feet AGL
Weather: no significant weather observed at this time

METAR text: YSCB 230700Z AUTO 33007KT 9999 // OVC100 24/14 Q1012 RF00.0/000.0
Conditions at: YSCB (CANBERRA (CIV/MI, AU) observed 0700 UTC 23 March 2019
Temperature: 24.0°C (75°F)
Dewpoint: 14.0°C (57°F) [RH = 54%]
Pressure (altimeter): 29.88 inches Hg (1012.0 mb)
Winds: from the NNW (330 degrees) at 8 MPH (7 knots; 3.6 m/s)
Visibility: 6 or more miles (10+ km)
Ceiling: 10000 feet AGL
Clouds: overcast cloud deck at 10000 feet AGL
Weather: no significant weather observed at this time

METAR text: YSCB 230630Z AUTO 30005KT 9999 // OVC100 24/14 Q1012 RF00.0/000.0 USE TAF FOR ARRIVALS
Conditions at: YSCB (CANBERRA (CIV/MI, AU) observed 0630 UTC 23 March 2019
Temperature: 24.0°C (75°F)
Dewpoint: 14.0°C (57°F) [RH = 54%]
Pressure (altimeter): 29.88 inches Hg (1012.0 mb)
Winds: from the WNW (300 degrees) at 6 MPH (5 knots; 2.6 m/s)
Visibility: 6 or more miles (10+ km)
Ceiling: 10000 feet AGL
Clouds: overcast cloud deck at 10000 feet AGL
Weather: VA  (volcanic ash)

METAR text: YSCB 230600Z AUTO 28004KT 9999 -SHRA SCT035 BKN105 24/13 Q1012 RMK RF00.0/000.0 NOSIG RMK USE TAF FOR ARRIVALS AFTER 0630Z
Conditions at: YSCB (CANBERRA (CIV/MI, AU) observed 0600 UTC 23 March 2019
Temperature: 24.0°C (75°F)
Dewpoint: 13.0°C (55°F) [RH = 50%]
Pressure (altimeter): 29.88 inches Hg (1012.0 mb)
Winds: from the W (280 degrees) at 5 MPH (4 knots; 2.1 m/s)
Visibility: 6 or more miles (10+ km)
Ceiling: 10500 feet AGL
Clouds: scattered clouds at 3500 feet AGL
broken clouds at 10500 feet AGL
Weather: -SHRA  (light rain showers)

METAR text: YSCB 230530Z AUTO 21002KT 9999 // OVC098 24/13 Q1012 RMK RF00.0/000.0 NOSIG RMK USE TAF FOR ARRIVALS AFTER 0630Z
Conditions at: YSCB (CANBERRA (CIV/MI, AU) observed 0530 UTC 23 March 2019
Temperature: 24.0°C (75°F)
Dewpoint: 13.0°C (55°F) [RH = 50%]
Pressure (altimeter): 29.88 inches Hg (1012.0 mb)
Winds: from the SSW (210 degrees) at 2 MPH (2 knots; 1.0 m/s)
Visibility: 6 or more miles (10+ km)
Ceiling: 9800 feet AGL
Clouds: overcast cloud deck at 9800 feet AGL
Weather: no significant weather observed at this time

METAR text: YSCB 230500Z AUTO 16004KT 130V190 9999 // OVC100 24/13 Q1012 RMK RF00.0/000.0 NOSIG RMK USE TAF FOR ARRIVALS AFTER 0630Z
Conditions at: YSCB (CANBERRA (CIV/MI, AU) observed 0500 UTC 23 March 2019
Temperature: 24.0°C (75°F)
Dewpoint: 13.0°C (55°F) [RH = 50%]
Pressure (altimeter): 29.88 inches Hg (1012.0 mb)
Winds: from the SSE (160 degrees) at 5 MPH (4 knots; 2.1 m/s)
Visibility: 6 or more miles (10+ km)
Ceiling: 10000 feet AGL
Clouds: overcast cloud deck at 10000 feet AGL
Weather: no significant weather observed at this time

METAR text: YSCB 230430Z AUTO 20003KT 9999 // SCT100 25/12 Q1012 RF00.0/000.0 RMK USE TAF FOR ARRIVALS AFTER 0630Z FM0430 MOD TURB BLW 5000FT
Conditions at: YSCB (CANBERRA (CIV/MI, AU) observed 0430 UTC 23 March 2019
Temperature: 25.0°C (77°F)
Dewpoint: 12.0°C (54°F) [RH = 44%]
Pressure (altimeter): 29.88 inches Hg (1012.0 mb)
Winds: from the SSW (200 degrees) at 3 MPH (3 knots; 1.5 m/s)
Visibility: 6 or more miles (10+ km)
Ceiling: at least 12,000 feet AGL
Clouds: scattered clouds at 10000 feet AGL
Weather: no significant weather observed at this time

METAR text: YSCB 230400Z AUTO 01003KT 9999 // SCT100 24/13 Q1013 RMK RF00.0/000.0 RMK USE TAF FOR ARRIVALS AFTER 0630Z FM0400 MOD TURB BLW 5000FT
Conditions at: YSCB (CANBERRA (CIV/MI, AU) observed 0400 UTC 23 March 2019
Temperature: 24.0°C (75°F)
Dewpoint: 13.0°C (55°F) [RH = 50%]
Pressure (altimeter): 29.91 inches Hg (1013.0 mb)
Winds: from the N (10 degrees) at 3 MPH (3 knots; 1.5 m/s)
Visibility: 6 or more miles (10+ km)
Ceiling: at least 12,000 feet AGL
Clouds: scattered clouds at 10000 feet AGL
Weather: no significant weather observed at this time

METAR text: YSCB 230330Z AUTO 29004KT 9999 // SCT054 SCT083 OVC100 23/14 Q1014 RMK RF00.0/000.0 FM0330 MOD TURB BLW 5000FT
Conditions at: YSCB (CANBERRA (CIV/MI, AU) observed 0330 UTC 23 March 2019
Temperature: 23.0°C (73°F)
Dewpoint: 14.0°C (57°F) [RH = 57%]
Pressure (altimeter): 29.94 inches Hg (1014.0 mb)
Winds: from the WNW (290 degrees) at 5 MPH (4 knots; 2.1 m/s)
Visibility: 6 or more miles (10+ km)
Ceiling: 10000 feet AGL
Clouds: scattered clouds at 5400 feet AGL
scattered clouds at 8300 feet AGL
overcast cloud deck at 10000 feet AGL
Weather: no significant weather observed at this time

METAR text: YSCB 230300Z AUTO 24001KT 9999 -RA SCT041 SCT077 BKN088 23/13 Q1014 FM0300 MOD TURB BLW 5000FT
Conditions at: YSCB (CANBERRA (CIV/MI, AU) observed 0300 UTC 23 March 2019
Temperature: 23.0°C (73°F)
Dewpoint: 13.0°C (55°F) [RH = 53%]
Pressure (altimeter): 29.94 inches Hg (1014.0 mb)
Winds: from the WSW (240 degrees) at 1 MPH (1 knots; 0.5 m/s)
Visibility: 6 or more miles (10+ km)
Ceiling: 8800 feet AGL
Clouds: scattered clouds at 4100 feet AGL
scattered clouds at 7700 feet AGL
broken clouds at 8800 feet AGL
Weather: -RA  (light rain)

METAR text: YSCB 230230Z AUTO 27004KT 240V350 9999 // SCT100 SCT120 23/13 Q1014 RMK RF00.0/000.0 FM0300 31008KT 9999 -SHRA NSC FM0300 MOD TURB BLW 5000FT
Conditions at: YSCB (CANBERRA (CIV/MI, AU) observed 0230 UTC 23 March 2019
Temperature: 23.0°C (73°F)
Dewpoint: 13.0°C (55°F) [RH = 53%]
Pressure (altimeter): 29.94 inches Hg (1014.0 mb)
Winds: from the W (270 degrees) at 5 MPH (4 knots; 2.1 m/s)
Visibility: 6 or more miles (10+ km)
Ceiling: at least 12,000 feet AGL
Clouds: scattered clouds at 10000 feet AGL
scattered clouds at 12000 feet AGL
Weather: no significant weather observed at this time

METAR text: YSCB 230200Z AUTO 25004KT 9999 // NCD 23/14 Q1014 FM0400 31008KT 9999 -SHRA NSC FM0300 MOD TURB BLW 5000FT
Conditions at: YSCB (CANBERRA (CIV/MI, AU) observed 0200 UTC 23 March 2019
Temperature: 23.0°C (73°F)
Dewpoint: 14.0°C (57°F) [RH = 57%]
Pressure (altimeter): 29.94 inches Hg (1014.0 mb)
Winds: from the WSW (250 degrees) at 5 MPH (4 knots; 2.1 m/s)
Visibility: 6 or more miles (10+ km)
Ceiling: at least 12,000 feet AGL
Clouds: sky clear below 12,000 feet AGL
Weather: no significant weather observed at this time

METAR text: YSCB 230130Z AUTO 24003KT 9999 // SCT125 22/15 Q1015 RMK RF00.0/000.0 FM0400 31008KT 9999 -SHRA NSC FM0300 MOD TURB BLW 5000FT
Conditions at: YSCB (CANBERRA (CIV/MI, AU) observed 0130 UTC 23 March 2019
Temperature: 22.0°C (72°F)
Dewpoint: 15.0°C (59°F) [RH = 65%]
Pressure (altimeter): 29.97 inches Hg (1015.0 mb)
Winds: from the WSW (240 degrees) at 3 MPH (3 knots; 1.5 m/s)
Visibility: 6 or more miles (10+ km)
Ceiling: at least 12,000 feet AGL
Clouds: scattered clouds at 12500 feet AGL
Weather: no significant weather observed at this time

METAR text: YSCB 230100Z AUTO 28004KT 220V320 9999 // NCD 21/13 Q1015 FM0300 MOD TURB BLW 5000FT
Conditions at: YSCB (CANBERRA (CIV/MI, AU) observed 0100 UTC 23 March 2019
Temperature: 21.0°C (70°F)
Dewpoint: 13.0°C (55°F) [RH = 60%]
Pressure (altimeter): 29.97 inches Hg (1015.0 mb)
Winds: from the W (280 degrees) at 5 MPH (4 knots; 2.1 m/s)
Visibility: 6 or more miles (10+ km)
Ceiling: at least 12,000 feet AGL
Clouds: sky clear below 12,000 feet AGL
Weather: no significant weather observed at this time

METAR text: YSCB 230030Z AUTO 29004KT 9999 // NCD 20/14 Q1015 RMK RF00.0/000.0 FM0300 MOD TURB BLW 5000FT
Conditions at: YSCB (CANBERRA (CIV/MI, AU) observed 0030 UTC 23 March 2019
Temperature: 20.0°C (68°F)
Dewpoint: 14.0°C (57°F) [RH = 68%]
Pressure (altimeter): 29.97 inches Hg (1015.0 mb)
Winds: from the WNW (290 degrees) at 5 MPH (4 knots; 2.1 m/s)
Visibility: 6 or more miles (10+ km)
Ceiling: at least 12,000 feet AGL
Clouds: sky clear below 12,000 feet AGL
Weather: no significant weather observed at this time

METAR text: YSCB 230000Z AUTO 33004KT 290V010 9999 // NCD 20/14 Q1015 RMK RF00.0/000.0 NOSIG
Conditions at: YSCB (CANBERRA (CIV/MI, AU) observed 0000 UTC 23 March 2019
Temperature: 20.0°C (68°F)
Dewpoint: 14.0°C (57°F) [RH = 68%]
Pressure (altimeter): 29.97 inches Hg (1015.0 mb)
Winds: from the NNW (330 degrees) at 5 MPH (4 knots; 2.1 m/s)
Visibility: 6 or more miles (10+ km)
Ceiling: at least 12,000 feet AGL
Clouds: sky clear below 12,000 feet AGL
Weather: no significant weather observed at this time

METAR text: YSCB 222330Z AUTO 27003KT 9999 // NCD 19/14 Q1016 RMK RF00.0/000.0 NOSIG
Conditions at: YSCB (CANBERRA (CIV/MI, AU) observed 2330 UTC 22 March 2019
Temperature: 19.0°C (66°F)
Dewpoint: 14.0°C (57°F) [RH = 73%]
Pressure (altimeter): 30.00 inches Hg (1016.0 mb)
Winds: from the W (270 degrees) at 3 MPH (3 knots; 1.5 m/s)
Visibility: 6 or more miles (10+ km)
Ceiling: at least 12,000 feet AGL
Clouds: sky clear below 12,000 feet AGL
Weather: no significant weather observed at this time

METAR text: YSCB 222300Z AUTO 00000KT 9999 // NCD 17/14 Q1016 NOSIG
Conditions at: YSCB (CANBERRA (CIV/MI, AU) observed 2300 UTC 22 March 2019
Temperature: 17.0°C (63°F)
Dewpoint: 14.0°C (57°F) [RH = 82%]
Pressure (altimeter): 30.00 inches Hg (1016.0 mb)
Winds: calm
Visibility: 6 or more miles (10+ km)
Ceiling: at least 12,000 feet AGL
Clouds: sky clear below 12,000 feet AGL
Weather: no significant weather observed at this time

METAR text: YSCB 222230Z AUTO 00000KT 9999 // SCT012 16/14 Q1016 RF00/0/000/0
Conditions at: YSCB (CANBERRA (CIV/MI, AU) observed 2230 UTC 22 March 2019
Temperature: 16.0°C (61°F)
Dewpoint: 14.0°C (57°F) [RH = 88%]
Pressure (altimeter): 30.00 inches Hg (1016.0 mb)
Winds: calm
Visibility: 6 or more miles (10+ km)
Ceiling: at least 12,000 feet AGL
Clouds: scattered clouds at 1200 feet AGL
Weather: no significant weather observed at this time

METAR text: YSCB 222200Z AUTO 00000KT 9999 // OVC014 14/14 Q1016
Conditions at: YSCB (CANBERRA (CIV/MI, AU) observed 2200 UTC 22 March 2019
Temperature: 14.0°C (57°F)
Dewpoint: 14.0°C (57°F) [RH = 100%]
Pressure (altimeter): 30.00 inches Hg (1016.0 mb)
Winds: calm
Visibility: 6 or more miles (10+ km)
Ceiling: 1400 feet AGL
Clouds: overcast cloud deck at 1400 feet AGL
Weather: no significant weather observed at this time

METAR text: YSCB 222130Z AUTO 00000KT 9999 // OVC014 14/14 Q1016 RF00.0/001.0
Conditions at: YSCB (CANBERRA (CIV/MI, AU) observed 2130 UTC 22 March 2019
Temperature: 14.0°C (57°F)
Dewpoint: 14.0°C (57°F) [RH = 100%]
Pressure (altimeter): 30.00 inches Hg (1016.0 mb)
Winds: calm
Visibility: 6 or more miles (10+ km)
Ceiling: 1400 feet AGL
Clouds: overcast cloud deck at 1400 feet AGL
Weather: no significant weather observed at this time

METAR text: YSCB 222100Z AUTO 00000KT 9999 // OVC016 12/12 Q1016
Conditions at: YSCB (CANBERRA (CIV/MI, AU) observed 2100 UTC 22 March 2019
Temperature: 12.0°C (54°F)
Dewpoint: 12.0°C (54°F) [RH = 100%]
Pressure (altimeter): 30.00 inches Hg (1016.0 mb)
Winds: calm
Visibility: 6 or more miles (10+ km)
Ceiling: 1600 feet AGL
Clouds: overcast cloud deck at 1600 feet AGL
Weather: no significant weather observed at this time

Forecast for: YSCB (CANBERRA (CIV/MI, AU)
Text: TAF YSCB 240545Z 2406/2506 31015KT 9999 BKN070
Forecast period: 0600 to 0900 UTC 24 March 2019
Forecast type: FROM: standard forecast or significant change
Winds: from the NW (310 degrees) at 17 MPH (15 knots; 7.7 m/s)
Visibility: 6 or more miles 10+ km)
Ceiling: 7000 feet AGL
Clouds: broken clouds at 7000 feet AGL
Weather: no significant weather forecast for this period
Text: BECMG 2409/2411 30013KT 9999 -RA BKN020
Forecast period: 0900 UTC 24 March 2019 to 0000 UTC 25 March 2019
Forecast type: BECOMING: Conditions expected to become as follows by 1100 UTC 24 March 2019
Winds: from the WNW (300 degrees) at 15 MPH (13 knots; 6.7 m/s)
Visibility: 6 or more miles 10+ km)
Ceiling: 2000 feet AGL
Clouds: broken clouds at 2000 feet AGL
Weather: -RA  (light rain)
Text: FM250000 30015G25KT 9999 -RA BKN020
Forecast period: 0000 to 0300 UTC 25 March 2019
Forecast type: FROM: standard forecast or significant change
Winds: from the WNW (300 degrees) at 17 MPH (15 knots; 7.7 m/s)
gusting to 29 MPH (25 knots; 12.9 m/s)
Visibility: 6 or more miles 10+ km)
Ceiling: 2000 feet AGL
Clouds: broken clouds at 2000 feet AGL
Weather: -RA  (light rain)
Text: BECMG 2503/2505 30018G28KT 9999 -RA BKN030
Forecast period: 0300 to 0600 UTC 25 March 2019
Forecast type: BECOMING: Conditions expected to become as follows by 0500 UTC 25 March 2019
Winds: from the WNW (300 degrees) at 21 MPH (18 knots; 9.3 m/s)
gusting to 32 MPH (28 knots; 14.4 m/s)
Visibility: 6 or more miles 10+ km)
Ceiling: 3000 feet AGL
Clouds: broken clouds at 3000 feet AGL
Weather: -RA  (light rain)
Text: TEMPO 2410/2503 4000 RA BKN018
Forecast period: 1000 UTC 24 March 2019 to 0300 UTC 25 March 2019
Forecast type: TEMPORARY: The following changes expected for less than half the time period
Visibility: 2.49 miles (4.01 km)
Ceiling: 1800 feet AGL
Clouds: broken clouds at 1800 feet AGL
Weather: RA  (moderate rain)